Time;durP1;ratioP1;P1;durP2;ratioP2;P2;SDS_P1;SDS_P2;PMS_P1;PMS_P2;Temp;Humidity;BMP_temperature;BMP_pressure;BME280_temperature;BME280_humidity;BME280_pressure;Samples;Min_cycle;Max_cycle;Signal;HPM_P1;HPM_P2
2024/03/07 00:01:05;;;;;;;57.10;23.70;;;;;;;-147.86;100.00;-17609.17;105628;1261;60011;-48
2024/03/07 00:03:33;;;;;;;51.20;23.30;;;;;;;-147.86;100.00;-17609.17;105650;1260;71773;-54
2024/03/07 00:06:03;;;;;;;50.60;23.60;;;;;;;-147.86;100.00;-17609.17;105671;1254;65137;-53
2024/03/07 00:08:31;;;;;;;51.50;22.10;;;;;;;-147.86;100.00;-17609.17;105658;1257;71419;-52
2024/03/07 00:10:59;;;;;;;53.50;22.80;;;;;;;-147.86;100.00;-17609.17;105677;1258;59784;-55
2024/03/07 00:13:27;;;;;;;58.90;23.80;;;;;;;-147.86;100.00;-17609.17;105662;1260;59731;-51
2024/03/07 00:15:55;;;;;;;57.20;24.40;;;;;;;-147.86;100.00;-17609.17;105677;1260;71863;-52
2024/03/07 00:18:23;;;;;;;54.20;24.10;;;;;;;-147.86;100.00;-17609.17;105660;1254;64014;-53
2024/03/07 00:20:51;;;;;;;48.40;23.10;;;;;;;-147.86;100.00;-17609.17;105637;1257;71425;-49
2024/03/07 00:23:19;;;;;;;56.60;23.60;;;;;;;-147.86;100.00;-17609.17;105626;1260;59695;-52
2024/03/07 00:25:48;;;;;;;54.60;23.00;;;;;;;-147.86;100.00;-17609.17;105634;1260;59806;-53
2024/03/07 00:28:17;;;;;;;54.70;24.20;;;;;;;-147.86;100.00;-17609.17;105665;1254;72932;-52
2024/03/07 00:30:45;;;;;;;54.40;23.30;;;;;;;-147.86;100.00;-17609.17;105634;1255;64359;-53
2024/03/07 00:33:13;;;;;;;55.80;24.20;;;;;;;-147.86;100.00;-17609.17;105670;1258;71408;-53
2024/03/07 00:35:41;;;;;;;50.20;22.70;;;;;;;-147.86;100.00;-17609.17;105664;1258;59739;-48
2024/03/07 00:38:09;;;;;;;47.00;21.80;;;;;;;-147.86;100.00;-17609.17;105618;1257;59637;-55
2024/03/07 00:40:37;;;;;;;48.60;22.10;;;;;;;-147.86;100.00;-17609.17;105651;1255;71741;-55
2024/03/07 00:43:06;;;;;;;54.70;22.80;;;;;;;-147.86;100.00;-17609.17;105636;1254;62747;-52
2024/03/07 00:45:34;;;;;;;50.00;21.50;;;;;;;-147.86;100.00;-17609.17;105704;1257;71356;-50
2024/03/07 00:48:03;;;;;;;50.30;22.10;;;;;;;-147.86;100.00;-17609.17;105610;1255;59937;-53
2024/03/07 00:50:32;;;;;;;44.40;20.10;;;;;;;-147.86;100.00;-17609.17;105620;1263;60862;-49
2024/03/07 00:53:00;;;;;;;42.80;22.10;;;;;;;-147.86;100.00;-17609.17;105671;1254;71809;-51
2024/03/07 00:55:27;;;;;;;53.90;22.50;;;;;;;-147.86;100.00;-17609.17;105647;1254;64641;-50
2024/03/07 00:57:55;;;;;;;50.80;22.80;;;;;;;-147.86;100.00;-17609.17;105629;1254;72635;-54
2024/03/07 01:00:23;;;;;;;50.30;21.80;;;;;;;-147.86;100.00;-17609.17;105668;1254;59829;-53
2024/03/07 01:02:53;;;;;;;47.70;23.30;;;;;;;-147.86;100.00;-17609.17;105695;1260;59747;-48
2024/03/07 01:05:21;;;;;;;50.40;22.30;;;;;;;-147.86;100.00;-17609.17;105696;1254;71730;-52
2024/03/07 01:07:49;;;;;;;44.80;21.20;;;;;;;-147.86;100.00;-17609.17;105669;1254;64610;-54
2024/03/07 01:10:17;;;;;;;48.00;22.50;;;;;;;-147.86;100.00;-17609.17;105609;1254;71680;-50
2024/03/07 01:12:45;;;;;;;52.50;22.60;;;;;;;-147.86;100.00;-17609.17;105645;1255;59825;-52
2024/03/07 01:15:14;;;;;;;53.80;22.90;;;;;;;-147.86;100.00;-17609.17;105696;1254;59973;-48
2024/03/07 01:17:42;;;;;;;45.90;22.30;;;;;;;-147.86;100.00;-17609.17;105666;1254;71777;-50
2024/03/07 01:20:11;;;;;;;53.90;21.90;;;;;;;-147.86;100.00;-17609.17;105635;1260;63908;-52
2024/03/07 01:22:39;;;;;;;48.90;21.40;;;;;;;-147.86;100.00;-17609.17;105680;1260;72594;-51
2024/03/07 01:25:07;;;;;;;54.40;22.90;;;;;;;-147.86;100.00;-17609.17;105666;1257;59740;-55
2024/03/07 01:27:35;;;;;;;54.00;23.70;;;;;;;-147.86;100.00;-17609.17;105658;1254;59797;-53
2024/03/07 01:30:03;;;;;;;54.80;24.40;;;;;;;-147.86;100.00;-17609.17;105642;1257;70833;-53
2024/03/07 01:32:31;;;;;;;52.30;23.30;;;;;;;-147.86;100.00;-17609.17;105673;1254;64038;-50
2024/03/07 02:05:45;;;;;;;;;;;;;;;-147.86;100.00;-17606.95;102635;1293;600499;-53
2024/03/07 02:08:14;;;;;;;47.20;20.50;;;;;;;-147.86;100.00;-17609.17;105043;1267;59494;-52
2024/03/07 02:10:42;;;;;;;48.10;20.50;;;;;;;-147.86;100.00;-17609.17;104861;1270;59335;-53
2024/03/07 02:13:11;;;;;;;44.70;20.90;;;;;;;-147.86;100.00;-17609.17;104889;1267;70940;-49
2024/03/07 02:15:38;;;;;;;47.50;21.10;;;;;;;-147.86;100.00;-17609.17;104843;1270;64388;-52
2024/03/07 02:18:09;;;;;;;41.20;19.90;;;;;;;-147.86;100.00;-17609.17;104801;1267;71719;-52
2024/03/07 02:20:37;;;;;;;43.30;20.90;;;;;;;-147.86;100.00;-17609.17;104920;1264;279057;-55
2024/03/07 02:23:05;;;;;;;50.60;22.50;;;;;;;-147.86;100.00;-17609.17;105091;1271;59410;-53
2024/03/07 02:25:37;;;;;;;46.60;22.30;;;;;;;-147.86;100.00;-17609.17;105076;1270;72249;-54
2024/03/07 02:28:05;;;;;;;48.00;22.00;;;;;;;-147.86;100.00;-17609.17;105187;1270;63114;-51
2024/03/07 02:30:33;;;;;;;44.30;20.70;;;;;;;-147.86;100.00;-17609.17;105079;1264;71343;-49
2024/03/07 02:33:06;;;;;;;52.50;22.20;;;;;;;-147.86;100.00;-17609.17;105083;1264;59650;-52
2024/03/07 02:35:35;;;;;;;45.10;20.50;;;;;;;-147.86;100.00;-17609.17;105120;1264;59734;-50
2024/03/07 02:38:04;;;;;;;44.70;21.10;;;;;;;-147.86;100.00;-17609.17;105158;1264;71801;-51
2024/03/07 02:40:31;;;;;;;44.20;21.40;;;;;;;-147.86;100.00;-17609.17;105098;1264;64172;-54
2024/03/07 02:42:59;;;;;;;46.80;21.50;;;;;;;-147.86;100.00;-17609.17;105120;1263;72652;-55
2024/03/07 02:45:27;;;;;;;41.90;20.80;;;;;;;-147.86;100.00;-17609.17;105102;1264;60413;-51
2024/03/07 02:47:55;;;;;;;44.10;21.10;;;;;;;-147.86;100.00;-17609.17;105124;1269;60033;-54
2024/03/07 02:50:23;;;;;;;44.70;19.70;;;;;;;-147.86;100.00;-17609.17;105116;1264;71562;-48
2024/03/07 02:52:52;;;;;;;45.20;20.50;;;;;;;-147.86;100.00;-17609.17;105138;1269;64450;-48
2024/03/07 02:55:20;;;;;;;44.00;21.50;;;;;;;-147.86;100.00;-17609.17;105131;1268;71488;-53
2024/03/07 02:59:36;;;;;;;;;;;;;;;-147.86;100.00;-17609.17;102730;1290;600110;-53
2024/03/07 03:02:05;;;;;;;44.30;18.90;;;;;;;-147.86;100.00;-17609.17;105083;1266;59280;-49
2024/03/07 03:04:34;;;;;;;43.50;19.70;;;;;;;-147.86;100.00;-17609.17;104881;1270;59279;-48
2024/03/07 03:07:01;;;;;;;43.80;19.70;;;;;;;-147.86;100.00;-17609.17;105375;1260;72211;-52
2024/03/07 03:09:29;;;;;;;52.60;21.10;;;;;;;-147.86;100.00;-17609.17;105408;1260;63617;-50
2024/03/07 03:11:57;;;;;;;44.60;20.40;;;;;;;-147.86;100.00;-17609.17;105342;1260;72644;-55
2024/03/07 03:14:24;;;;;;;43.60;20.60;;;;;;;-147.86;100.00;-17609.17;105335;1261;250044;-49
2024/03/07 03:16:52;;;;;;;51.30;22.30;;;;;;;-147.86;100.00;-17609.17;105600;1261;59416;-50
2024/03/07 03:19:23;;;;;;;43.00;19.00;;;;;;;-147.86;100.00;-17609.17;105613;1258;71040;-49
2024/03/07 03:21:50;;;;;;;46.60;20.90;;;;;;;-147.86;100.00;-17609.17;105604;1260;63480;-49
2024/03/07 03:24:18;;;;;;;43.10;19.50;;;;;;;-147.86;100.00;-17609.17;105642;1260;71676;-52
2024/03/07 03:26:47;;;;;;;44.90;19.60;;;;;;;-147.86;100.00;-17609.17;105610;1260;60076;-50
2024/03/07 03:29:18;;;;;;;49.10;21.80;;;;;;;-147.86;100.00;-17609.17;105606;1256;60050;-50
2024/03/07 03:31:46;;;;;;;42.50;19.90;;;;;;;-147.86;100.00;-17609.17;105579;1256;71555;-50
2024/03/07 03:34:13;;;;;;;40.00;19.60;;;;;;;-147.86;100.00;-17609.17;105576;1256;63520;-50
2024/03/07 03:36:41;;;;;;;49.50;20.70;;;;;;;-147.86;100.00;-17609.17;105571;1257;71453;-52
2024/03/07 03:39:11;;;;;;;43.00;19.90;;;;;;;-147.86;100.00;-17609.17;105572;1261;59669;-50
2024/03/07 03:41:38;;;;;;;41.30;19.90;;;;;;;-147.86;100.00;-17609.17;105568;1257;59801;-48
2024/03/07 03:44:07;;;;;;;43.00;20.30;;;;;;;-147.86;100.00;-17609.17;105608;1256;71807;-50
2024/03/07 03:46:35;;;;;;;50.00;19.60;;;;;;;-147.86;100.00;-17609.17;105581;1257;63911;-52
2024/03/07 03:49:04;;;;;;;42.50;19.90;;;;;;;-147.86;100.00;-17609.17;105562;1261;71764;-49
2024/03/07 03:51:33;;;;;;;44.20;20.70;;;;;;;-147.86;100.00;-17609.17;105586;1261;60481;-47
2024/03/07 03:54:00;;;;;;;49.70;20.10;;;;;;;-147.86;100.00;-17609.17;105630;1256;59562;-52
2024/03/07 03:56:28;;;;;;;40.80;20.00;;;;;;;-147.86;100.00;-17609.17;105564;1256;71624;-48
2024/03/07 03:58:56;;;;;;;40.20;20.20;;;;;;;-147.86;100.00;-17609.17;105592;1260;65325;-52
2024/03/07 04:01:25;;;;;;;40.30;19.80;;;;;;;-147.86;100.00;-17609.17;105589;1256;72650;-49
2024/03/07 04:03:52;;;;;;;46.60;21.00;;;;;;;-147.86;100.00;-17609.17;105608;1256;59743;-53
2024/03/07 04:06:20;;;;;;;48.40;20.00;;;;;;;-147.86;100.00;-17609.17;105576;1256;59638;-51
2024/03/07 04:08:48;;;;;;;46.00;19.10;;;;;;;-147.86;100.00;-17609.17;105605;1257;73020;-46
2024/03/07 04:11:16;;;;;;;42.40;20.90;;;;;;;-147.86;100.00;-17609.17;105567;1257;63832;-52
2024/03/07 04:13:45;;;;;;;44.20;20.30;;;;;;;-147.86;100.00;-17609.17;105591;1256;72616;-51
2024/03/07 04:16:14;;;;;;;40.40;20.20;;;;;;;-147.86;100.00;-17609.17;105553;1256;59742;-52
2024/03/07 04:18:41;;;;;;;47.20;21.00;;;;;;;-147.86;100.00;-17609.17;105591;1256;60026;-52
2024/03/07 04:21:09;;;;;;;46.50;19.50;;;;;;;-147.86;100.00;-17609.17;105579;1257;71811;-53
2024/03/07 04:23:40;;;;;;;43.20;19.90;;;;;;;-147.86;100.00;-17609.17;105590;1256;62857;-52
2024/03/07 04:26:08;;;;;;;44.90;21.80;;;;;;;-147.86;100.00;-17609.17;105559;1256;71758;-50
2024/03/07 04:28:36;;;;;;;42.50;20.10;;;;;;;-147.86;100.00;-17609.17;105563;1257;60884;-49
2024/03/07 04:31:03;;;;;;;44.20;19.60;;;;;;;-147.86;100.00;-17609.17;105554;1257;59702;-54
2024/03/07 04:33:31;;;;;;;42.20;20.20;;;;;;;-147.86;100.00;-17609.17;105521;1262;71862;-49
2024/03/07 04:36:02;;;;;;;41.50;19.20;;;;;;;-147.86;100.00;-17609.17;105570;1261;64036;-51
2024/03/07 04:38:30;;;;;;;44.20;21.80;;;;;;;-147.86;100.00;-17609.17;105577;1257;71426;-56
2024/03/07 04:40:59;;;;;;;39.50;19.10;;;;;;;-147.86;100.00;-17609.17;105540;1262;59741;-53
2024/03/07 04:43:27;;;;;;;45.10;21.30;;;;;;;-147.86;100.00;-17609.17;105562;1257;59981;-52
2024/03/07 04:45:55;;;;;;;52.10;22.50;;;;;;;-147.86;100.00;-17609.17;105529;1262;72297;-53
2024/03/07 04:48:22;;;;;;;45.40;22.60;;;;;;;-147.86;100.00;-17609.17;105566;1256;63217;-48
2024/03/07 04:50:50;;;;;;;49.50;23.60;;;;;;;-147.86;100.00;-17609.17;105370;1262;72663;-51
2024/03/07 04:53:18;;;;;;;42.80;20.70;;;;;;;-147.86;100.00;-17609.17;105405;1262;59706;-48
2024/03/07 04:55:46;;;;;;;49.20;20.50;;;;;;;-147.86;100.00;-17609.17;105552;1261;60095;-52
2024/03/07 04:58:13;;;;;;;44.40;21.50;;;;;;;-147.86;100.00;-17609.17;105431;1260;73041;-48
2024/03/07 05:00:41;;;;;;;49.80;22.40;;;;;;;-147.86;100.00;-17609.17;105391;1262;63614;-49
2024/03/07 05:03:09;;;;;;;43.80;20.90;;;;;;;-147.86;100.00;-17609.17;105516;1260;71368;-49
2024/03/07 05:05:37;;;;;;;44.10;19.10;;;;;;;-147.86;100.00;-17609.17;105573;1257;59748;-54
2024/03/07 05:08:06;;;;;;;40.80;18.60;;;;;;;-147.86;100.00;-17609.17;105534;1261;59545;-54
2024/03/07 05:10:35;;;;;;;35.00;18.20;;;;;;;-147.86;100.00;-17609.17;105451;1262;72080;-52
2024/03/07 05:13:04;;;;;;;39.90;18.30;;;;;;;-147.86;100.00;-17609.17;105548;1261;64590;-50
2024/03/07 05:15:32;;;;;;;37.50;17.60;;;;;;;-147.86;100.00;-17609.17;105538;1256;71396;-51
2024/03/07 05:18:00;;;;;;;33.80;17.30;;;;;;;-147.86;100.00;-17609.17;105528;1261;59715;-50
2024/03/07 05:20:28;;;;;;;36.50;17.40;;;;;;;-147.86;100.00;-17609.17;105562;1261;59905;-51
2024/03/07 05:22:56;;;;;;;35.80;16.00;;;;;;;-147.86;100.00;-17609.17;105544;1256;71820;-53
2024/03/07 05:25:24;;;;;;;35.00;15.80;;;;;;;-147.86;100.00;-17609.17;105611;1257;64482;-54
2024/03/07 05:27:51;;;;;;;31.00;15.90;;;;;;;-147.86;100.00;-17609.17;105525;1262;70625;-53
2024/03/07 05:30:23;;;;;;;36.60;17.50;;;;;;;-147.86;100.00;-17609.17;105537;1260;59682;-50
2024/03/07 05:32:51;;;;;;;32.80;17.10;;;;;;;-147.86;100.00;-17609.17;105594;1261;59642;-54
2024/03/07 05:35:20;;;;;;;38.20;17.10;;;;;;;-147.86;100.00;-17609.17;105576;1256;71772;-49
2024/03/07 05:37:50;;;;;;;32.80;17.60;;;;;;;-147.86;100.00;-17609.17;105530;1257;63153;-53
2024/03/07 05:40:19;;;;;;;35.00;17.20;;;;;;;-147.86;100.00;-17609.17;105565;1257;71391;-50
2024/03/07 05:42:47;;;;;;;35.20;16.80;;;;;;;-147.86;100.00;-17609.17;105568;1256;59742;-52
2024/03/07 05:45:14;;;;;;;30.80;16.10;;;;;;;-147.86;100.00;-17609.17;105548;1262;60151;-49
2024/03/07 05:47:42;;;;;;;33.40;16.40;;;;;;;-147.86;100.00;-17609.17;105532;1257;71761;-54
2024/03/07 05:50:10;;;;;;;34.10;17.00;;;;;;;-147.86;100.00;-17609.17;105527;1257;63221;-50
2024/03/07 05:52:38;;;;;;;40.40;17.50;;;;;;;-147.86;100.00;-17609.17;105583;1258;71356;-49
2024/03/07 05:55:07;;;;;;;33.40;16.60;;;;;;;-147.86;100.00;-17609.17;105541;1261;59781;-53
2024/03/07 05:57:35;;;;;;;41.60;17.80;;;;;;;-147.86;100.00;-17609.17;105582;1256;59962;-55
2024/03/07 06:00:09;;;;;;;31.50;16.70;;;;;;;-147.86;100.00;-17609.17;105528;1261;72202;-52
2024/03/07 06:02:39;;;;;;;39.60;17.60;;;;;;;-147.86;100.00;-17609.17;105649;1262;64278;-54
2024/03/07 06:05:15;;;;;;;36.10;18.30;;;;;;;-147.86;100.00;-17609.17;105583;1257;71395;-49
2024/03/07 06:07:45;;;;;;;33.00;16.80;;;;;;;-147.86;100.00;-17609.17;105561;1257;59689;-49
2024/03/07 06:10:16;;;;;;;33.80;17.40;;;;;;;-147.86;100.00;-17609.17;105670;1261;59635;-50
2024/03/07 06:12:45;;;;;;;39.80;18.10;;;;;;;-147.86;100.00;-17609.17;105541;1256;73015;-49
2024/03/07 06:15:16;;;;;;;31.30;16.80;;;;;;;-147.86;100.00;-17609.17;105596;1260;64027;-52
2024/03/07 06:17:46;;;;;;;35.80;15.90;;;;;;;-147.86;100.00;-17609.17;105514;1257;71388;-53
2024/03/07 06:20:24;;;;;;;30.70;15.60;;;;;;;-147.86;100.00;-17609.17;105614;1262;59746;-53
2024/03/07 06:22:53;;;;;;;31.60;14.70;;;;;;;-147.86;100.00;-17609.17;105577;1261;61910;-53
2024/03/07 06:25:33;;;;;;;35.90;17.40;;;;;;;-147.86;100.00;-17609.17;105621;1257;72987;-50
2024/03/07 06:28:08;;;;;;;34.90;17.40;;;;;;;-147.86;100.00;-17609.17;105567;1257;64391;-54
2024/03/07 06:30:46;;;;;;;;;;;;;;;-147.86;100.00;-17609.17;105603;1256;71368;-52
2024/03/07 06:33:16;;;;;;;30.40;15.20;;;;;;;-147.86;100.00;-17609.17;105547;1261;59692;-53
2024/03/07 06:35:45;;;;;;;34.30;16.80;;;;;;;-147.86;100.00;-17609.17;105619;1257;62734;-54
2024/03/07 06:38:13;;;;;;;36.80;15.80;;;;;;;-147.86;100.00;-17609.17;105561;1258;72989;-51
2024/03/07 06:40:44;;;;;;;30.70;15.50;;;;;;;-147.86;100.00;-17609.17;105567;1261;64868;-48
2024/03/07 06:43:12;;;;;;;32.90;16.00;;;;;;;-147.86;100.00;-17609.17;105517;1257;72754;-51
2024/03/07 06:45:41;;;;;;;31.10;16.40;;;;;;;-147.86;100.00;-17609.17;105574;1257;59625;-51
2024/03/07 06:48:09;;;;;;;35.10;16.80;;;;;;;-147.86;100.00;-17609.17;105531;1262;59640;-54
2024/03/07 06:50:37;;;;;;;37.60;17.90;;;;;;;-147.86;100.00;-17609.17;105630;1258;71778;-49
2024/03/07 06:53:09;;;;;;;32.30;16.10;;;;;;;-147.86;100.00;-17609.17;105544;1259;63194;-48
2024/03/07 06:55:37;;;;;;;35.00;16.40;;;;;;;-147.86;100.00;-17609.17;105557;1262;71743;-49
2024/03/07 06:58:06;;;;;;;33.10;16.80;;;;;;;-147.86;100.00;-17609.17;105558;1258;59744;-49
2024/03/07 07:00:35;;;;;;;41.10;17.00;;;;;;;-147.86;100.00;-17609.17;105560;1261;59644;-51
2024/03/07 07:03:05;;;;;;;32.80;16.70;;;;;;;-147.86;100.00;-17609.17;105534;1257;73537;-51
2024/03/07 07:05:34;;;;;;;32.20;17.20;;;;;;;-147.86;100.00;-17609.17;105586;1257;63364;-55
2024/03/07 07:08:02;;;;;;;48.90;16.60;;;;;;;-147.86;100.00;-17609.17;105516;1262;71339;-52
2024/03/07 07:10:30;;;;;;;34.70;16.00;;;;;;;-147.86;100.00;-17608.59;105420;1262;60565;-52
2024/03/07 07:12:57;;;;;;;34.80;17.30;;;;;;;-147.86;99.76;-16867.50;105525;1262;60468;-55
2024/03/07 07:15:25;;;;;;;33.90;15.10;;;;;;;-147.86;99.98;-16373.97;105573;1257;74845;-51
2024/03/07 07:17:53;;;;;;;33.40;17.40;;;;;;;-147.86;100.00;-16620.75;105580;1260;64783;-54
2024/03/07 07:20:23;;;;;;;36.50;16.60;;;;;;;-147.86;100.00;-16719.46;105533;1261;71442;-54
2024/03/07 07:22:53;;;;;;;35.20;17.90;;;;;;;-147.86;99.50;-15880.35;105554;1257;60591;-55
2024/03/07 07:25:21;;;;;;;34.60;16.20;;;;;;;-147.86;98.73;-14399.11;105582;1257;62022;-50
2024/03/07 07:27:50;;;;;;;31.00;16.80;;;;;;;-147.86;98.27;-13016.15;105560;1262;71941;-52
2024/03/07 07:30:22;;;;;;;35.30;17.30;;;;;;;-147.86;97.69;-11533.82;105563;1257;63165;-51
2024/03/07 07:32:51;;;;;;;30.20;16.40;;;;;;;-147.86;97.27;-10050.93;105558;1263;74930;-54
2024/03/07 07:35:19;;;;;;;34.40;16.90;;;;;;;-147.86;96.37;-7973.83;105576;1262;60559;-49
2024/03/07 07:37:49;;;;;;;32.10;15.90;;;;;;;-147.86;95.43;-5004.67;105562;1257;62487;-51
2024/03/07 07:40:22;;;;;;;31.50;16.40;;;;;;;-147.86;95.53;-3420.31;105517;1258;75718;-53
2024/03/07 07:42:52;;;;;;;31.50;16.60;;;;;;;-147.86;94.86;-2280.93;105549;1261;65286;-52
2024/03/07 07:45:21;;;;;;;31.20;17.20;;;;;;;-147.86;93.50;2676.23;105554;1262;75170;-54
2024/03/07 07:47:51;;;;;;;34.60;16.70;;;;;;;-147.86;93.28;5454.90;105579;1257;61646;-52
2024/03/07 07:50:20;;;;;;;29.90;15.60;;;;;;;-147.86;91.70;10074.69;105574;1262;61149;-54
2024/03/07 07:52:55;;;;;;;36.00;17.30;;;;;;;-147.86;89.59;20177.42;105574;1261;76532;-48
2024/03/07 07:55:27;;;;;;;33.80;16.10;;;;;;;-147.86;89.30;28678.23;105546;1262;64456;-50
2024/03/07 07:57:56;;;;;;;31.90;17.50;;;;;;;-147.86;89.50;29412.59;105514;1262;74631;-49
2024/03/07 08:00:31;;;;;;;30.60;16.50;;;;;;;-147.86;89.45;31170.77;105552;1261;60626;-49
2024/03/07 08:03:04;;;;;;;40.30;17.00;;;;;;;-147.86;88.85;33981.04;105576;1262;61110;-52
2024/03/07 08:05:33;;;;;;;34.40;16.20;;;;;;;-147.86;87.61;37965.51;105547;1262;74870;-53
2024/03/07 08:08:06;;;;;;;30.20;15.90;;;;;;;-147.86;85.29;42198.86;105570;1263;65579;-55
2024/03/07 08:10:36;;;;;;;30.00;16.30;;;;;;;-147.86;85.98;42833.05;105548;1260;71154;-55
2024/03/07 08:13:06;;;;;;;28.70;16.20;;;;;;;-147.86;86.95;42104.47;105534;1256;61545;-54
2024/03/07 08:15:34;;;;;;;30.90;17.30;;;;;;;-147.86;87.05;41784.26;105589;1261;62519;-54
2024/03/07 08:18:01;;;;;;;27.80;15.70;;;;;;;-147.86;87.14;41757.25;105517;1263;76549;-53
2024/03/07 08:20:30;;;;;;;34.30;17.20;;;;;;;-147.86;88.24;40600.38;105516;1261;65033;-51
2024/03/07 08:22:59;;;;;;;37.30;17.60;;;;;;;-147.86;89.19;37800.74;105559;1263;73023;-50
2024/03/07 08:25:28;;;;;;;32.50;16.40;;;;;;;-147.86;89.64;35602.58;105578;1261;61542;-48
2024/03/07 08:27:57;;;;;;;33.20;16.80;;;;;;;-147.86;89.28;34123.59;105362;1261;60459;-52
2024/03/07 08:30:26;;;;;;;31.90;16.40;;;;;;;-147.86;86.72;39076.80;105592;1257;73661;-54
2024/03/07 08:32:55;;;;;;;32.80;16.40;;;;;;;-147.86;83.86;43221.50;105535;1257;66792;-51
2024/03/07 08:35:24;;;;;;;29.50;16.10;;;;;;;-147.86;82.07;44109.29;105558;1257;74644;-54
2024/03/07 08:37:53;;;;;;;29.80;16.40;;;;;;;-147.86;78.25;44759.90;105590;1262;60556;-50
2024/03/07 08:40:35;;;;;;;36.80;17.00;;;;;;;-147.86;76.11;45005.91;105587;1257;60552;-49
2024/03/07 08:43:03;;;;;;;33.00;16.10;;;;;;;-147.86;72.70;45053.71;105566;1261;75429;-49
2024/03/07 08:45:34;;;;;;;29.50;15.90;;;;;;;-147.86;70.81;45071.34;105578;1263;64784;-50
2024/03/07 08:48:04;;;;;;;29.10;15.10;;;;;;;-147.86;70.99;45056.84;105575;1260;73335;-53
2024/03/07 08:50:34;;;;;;;31.70;17.00;;;;;;;-147.86;71.76;45067.42;105540;1262;60798;-52
2024/03/07 08:53:04;;;;;;;37.20;16.20;;;;;;;-147.86;71.02;45081.13;105613;1257;61651;-50
2024/03/07 08:55:32;;;;;;;30.10;15.50;;;;;;;-147.86;71.78;45138.72;105581;1263;72836;-51
2024/03/07 08:58:01;;;;;;;30.30;15.80;;;;;;;-147.86;71.19;45135.20;105565;1257;66518;-49
2024/03/07 09:00:28;;;;;;;30.80;16.20;;;;;;;-147.86;71.47;45132.84;105508;1261;75022;-54
2024/03/07 09:02:57;;;;;;;31.00;16.60;;;;;;;-147.86;69.94;45148.12;105518;1270;60912;-54
2024/03/07 10:10:09;;;;;;;22.20;12.70;;;;;;;-147.86;63.90;45693.51;102660;1295;600338;-54
2024/03/07 10:12:38;;;;;;;19.10;12.00;;;;;;;-147.86;62.68;45589.28;104893;1269;60179;-52
2024/03/07 10:15:10;;;;;;;20.10;11.60;;;;;;;-147.86;62.90;45601.43;105261;1263;62288;-47
2024/03/07 10:17:38;;;;;;;20.10;12.10;;;;;;;-147.86;59.55;45628.86;105247;1262;74539;-55
2024/03/07 10:20:13;;;;;;;14.20;9.50;;;;;;;-147.86;59.74;45653.54;105234;1272;64322;-51
2024/03/07 10:22:41;;;;;;;19.50;10.90;;;;;;;-147.86;59.14;45668.04;105057;1260;284922;-51
2024/03/07 10:25:10;;;;;;;19.00;10.80;;;;;;;-147.86;58.84;45700.95;105208;1266;59414;-53
2024/03/07 10:27:38;;;;;;;17.60;10.60;;;;;;;-147.86;55.70;45733.47;105287;1261;61128;-55
2024/03/07 10:30:08;;;;;;;18.20;11.60;;;;;;;-147.86;56.93;45762.07;105296;1259;72066;-53
2024/03/07 10:32:36;;;;;;;17.10;10.60;;;;;;;-147.86;57.61;45782.84;105449;1262;64365;-50
2024/03/07 10:35:07;;;;;;;20.80;11.10;;;;;;;-147.86;58.02;45782.45;105461;1260;72563;-50
2024/03/07 10:37:35;;;;;;;22.10;11.20;;;;;;;-147.86;56.61;45808.31;105412;1263;59724;-52
2024/03/07 10:40:15;;;;;;;18.60;10.00;;;;;;;-147.86;55.97;45851.80;105310;1264;60881;-51
2024/03/07 10:42:51;;;;;;;18.10;10.20;;;;;;;-147.86;56.40;45898.82;105270;1264;71987;-54
2024/03/07 10:45:21;;;;;;;16.00;10.30;;;;;;;-147.86;57.79;45953.29;105249;1264;64382;-52
2024/03/07 10:47:55;;;;;;;21.20;11.50;;;;;;;-147.86;58.86;45980.33;105288;1264;72839;-53
2024/03/07 10:50:28;;;;;;;17.70;10.70;;;;;;;-147.86;58.59;45963.48;105400;1264;59752;-53
2024/03/07 10:53:06;;;;;;;16.00;10.20;;;;;;;-147.86;57.88;45960.74;105443;1262;61009;-49
2024/03/07 10:55:36;;;;;;;23.30;10.30;;;;;;;-147.86;56.96;45950.55;105257;1260;74438;-52
2024/03/07 10:58:32;;;;;;;21.10;10.90;;;;;;;-147.86;55.55;45956.82;105241;1261;66719;-54
2024/03/07 11:01:03;;;;;;;22.60;11.60;;;;;;;-147.86;54.51;45965.44;105201;1267;72731;-52
2024/03/07 11:03:35;;;;;;;20.90;10.40;;;;;;;-147.86;53.72;45972.88;105230;1267;59766;-48
2024/03/07 11:06:06;;;;;;;20.20;11.40;;;;;;;-147.86;52.47;46011.29;105241;1261;62027;-51
2024/03/07 11:08:34;;;;;;;14.90;9.60;;;;;;;-147.86;51.74;46034.80;105207;1266;75103;-48
2024/03/07 11:11:04;;;;;;;15.40;10.00;;;;;;;-147.86;50.72;46099.85;105069;1267;65406;-54
2024/03/07 11:13:33;;;;;;;21.80;10.90;;;;;;;-147.86;49.86;46150.01;105601;1261;73526;-53
2024/03/07 11:16:00;;;;;;;23.30;10.20;;;;;;;-147.86;49.97;46232.70;105557;1261;60098;-50
2024/03/07 11:18:28;;;;;;;18.10;10.40;;;;;;;-147.86;50.30;46297.74;105473;1258;60310;-48
2024/03/07 11:20:57;;;;;;;15.90;10.20;;;;;;;-147.86;50.93;46344.38;105556;1260;73397;-54
2024/03/07 11:23:30;;;;;;;18.40;10.80;;;;;;;-147.86;51.31;46345.95;105561;1260;66682;-51
2024/03/07 11:26:07;;;;;;;25.00;11.00;;;;;;;-147.86;50.85;46391.80;105565;1258;71281;-54
2024/03/07 11:28:37;;;;;;;19.00;11.10;;;;;;;-147.86;50.90;46415.31;105596;1261;60447;-55
2024/03/07 11:31:27;;;;;;;15.40;10.20;;;;;;;-147.86;50.35;46430.98;105562;1261;61455;-53
2024/03/07 11:34:14;;;;;;;17.30;10.00;;;;;;;-147.86;49.26;46484.28;105501;1256;74162;-52
2024/03/07 11:36:44;;;;;;;17.50;9.60;;;;;;;-147.86;49.70;46554.82;105584;1261;64613;-50
2024/03/07 11:39:43;;;;;;;15.00;10.00;;;;;;;-147.86;49.72;46599.90;105560;1261;72572;-53
2024/03/07 11:42:21;;;;;;;23.60;9.80;;;;;;;-147.86;49.28;46686.51;105569;1263;59774;-52
2024/03/07 11:44:49;;;;;;;20.10;10.70;;;;;;;-147.86;49.55;46739.81;105616;1257;60139;-53
2024/03/07 11:47:18;;;;;;;21.20;11.30;;;;;;;-147.86;49.99;46763.72;105618;1256;74129;-50
2024/03/07 11:49:49;;;;;;;21.80;10.90;;;;;;;-147.86;50.14;46794.68;105538;1257;64949;-51
2024/03/07 11:52:16;;;;;;;20.90;11.10;;;;;;;-147.86;49.68;46797.03;105550;1257;72331;-50
2024/03/07 11:54:47;;;;;;;21.10;11.00;;;;;;;-147.86;49.74;46842.89;105531;1260;59593;-53
2024/03/07 11:57:32;;;;;;;22.20;10.10;;;;;;;-147.86;50.45;46849.55;105608;1258;60354;-53
2024/03/07 12:00:00;;;;;;;22.20;11.70;;;;;;;-147.86;50.26;46878.55;105553;1260;74064;-54
2024/03/07 12:02:39;;;;;;;23.30;10.50;;;;;;;-147.86;50.74;46894.23;105542;1258;63702;-56
2024/03/07 12:05:08;;;;;;;19.80;10.50;;;;;;;-147.86;50.02;46901.68;105677;1260;72964;-51
2024/03/07 12:07:36;;;;;;;23.20;11.00;;;;;;;-147.86;49.49;46942.84;105716;1253;60453;-50
2024/03/07 12:10:05;;;;;;;17.70;10.70;;;;;;;-147.86;49.31;46976.15;105692;1253;62338;-49
2024/03/07 12:12:32;;;;;;;16.70;10.20;;;;;;;-147.86;49.22;47015.74;105694;1257;73177;-54
2024/03/07 12:15:09;;;;;;;21.70;12.60;;;;;;;-147.86;49.54;47049.45;105751;1253;65106;-50
2024/03/07 12:17:37;;;;;;;27.00;13.90;;;;;;;-147.86;49.57;47055.32;105752;1255;73193;-52
2024/03/07 12:20:24;;;;;;;18.60;11.40;;;;;;;-147.86;49.50;47089.82;105718;1253;61381;-54
2024/03/07 12:22:57;;;;;;;19.50;11.30;;;;;;;-147.86;49.38;47127.05;105713;1254;59962;-55
2024/03/07 12:25:25;;;;;;;17.20;10.70;;;;;;;-147.86;49.51;47151.36;105684;1254;71423;-52
2024/03/07 12:28:05;;;;;;;22.90;12.20;;;;;;;-147.86;49.19;47178.79;105859;1254;65826;-53
2024/03/07 12:30:34;;;;;;;16.40;10.10;;;;;;;-147.86;49.48;47199.18;105683;1257;70832;-51
2024/03/07 12:33:07;;;;;;;18.40;10.50;;;;;;;-147.86;48.87;47247.00;105711;1257;59756;-54